sensor_id;sensor_type;location;lat;lon;timestamp;temperature;humidity
41220;DHT22;26951;47.338;9.196;2022-09-03T00:11:21;12.90;68.00
41220;DHT22;26951;47.338;9.196;2022-09-03T00:14:11;13.00;69.20
41220;DHT22;26951;47.338;9.196;2022-09-03T00:17:13;13.00;69.00
41220;DHT22;26951;47.338;9.196;2022-09-03T00:20:11;13.00;67.70
41220;DHT22;26951;47.338;9.196;2022-09-03T00:22:59;13.00;68.10
41220;DHT22;26951;47.338;9.196;2022-09-03T00:29:15;13.10;69.30
41220;DHT22;26951;47.338;9.196;2022-09-03T00:32:06;13.10;69.60
41220;DHT22;26951;47.338;9.196;2022-09-03T00:34:57;13.10;70.10
41220;DHT22;26951;47.338;9.196;2022-09-03T00:37:43;13.20;69.80
41220;DHT22;26951;47.338;9.196;2022-09-03T00:40:44;13.20;70.30
41220;DHT22;26951;47.338;9.196;2022-09-03T00:53:12;13.20;70.70
41220;DHT22;26951;47.338;9.196;2022-09-03T00:56:06;13.30;70.60
41220;DHT22;26951;47.338;9.196;2022-09-03T00:59:10;13.30;71.20
41220;DHT22;26951;47.338;9.196;2022-09-03T01:11:04;13.40;74.10
41220;DHT22;26951;47.338;9.196;2022-09-03T01:17:29;13.50;69.20
41220;DHT22;26951;47.338;9.196;2022-09-03T01:20:37;13.60;68.70
41220;DHT22;26951;47.338;9.196;2022-09-03T01:26:52;13.70;67.70
41220;DHT22;26951;47.338;9.196;2022-09-03T01:30:12;13.80;67.80
41220;DHT22;26951;47.338;9.196;2022-09-03T01:33:42;13.80;68.00
41220;DHT22;26951;47.338;9.196;2022-09-03T01:39:50;14.00;68.70
41220;DHT22;26951;47.338;9.196;2022-09-03T01:45:58;14.10;69.20
41220;DHT22;26951;47.338;9.196;2022-09-03T01:49:03;14.10;70.00
41220;DHT22;26951;47.338;9.196;2022-09-03T01:52:06;14.20;70.40
41220;DHT22;26951;47.338;9.196;2022-09-03T01:58:08;14.30;71.50
41220;DHT22;26951;47.338;9.196;2022-09-03T02:00:59;14.30;72.10
41220;DHT22;26951;47.338;9.196;2022-09-03T02:03:44;14.40;72.20
41220;DHT22;26951;47.338;9.196;2022-09-03T02:06:29;14.40;72.40
41220;DHT22;26951;47.338;9.196;2022-09-03T02:09:17;14.50;71.80
41220;DHT22;26951;47.338;9.196;2022-09-03T02:12:13;14.60;71.70
41220;DHT22;26951;47.338;9.196;2022-09-03T02:15:09;14.60;71.80
41220;DHT22;26951;47.338;9.196;2022-09-03T02:17:58;14.70;73.30
41220;DHT22;26951;47.338;9.196;2022-09-03T02:20:45;14.70;74.00
41220;DHT22;26951;47.338;9.196;2022-09-03T02:23:30;14.70;73.30
41220;DHT22;26951;47.338;9.196;2022-09-03T02:26:21;14.80;73.50
41220;DHT22;26951;47.338;9.196;2022-09-03T02:29:06;14.80;73.10
41220;DHT22;26951;47.338;9.196;2022-09-03T02:31:50;14.80;72.90
41220;DHT22;26951;47.338;9.196;2022-09-03T02:34:35;14.80;73.70
41220;DHT22;26951;47.338;9.196;2022-09-03T02:37:19;14.80;73.80
41220;DHT22;26951;47.338;9.196;2022-09-03T02:40:03;14.80;74.00
41220;DHT22;26951;47.338;9.196;2022-09-03T02:42:51;14.80;73.80
41220;DHT22;26951;47.338;9.196;2022-09-03T02:45:41;14.80;73.50
41220;DHT22;26951;47.338;9.196;2022-09-03T02:48:26;14.70;73.50
41220;DHT22;26951;47.338;9.196;2022-09-03T02:51:11;14.70;73.80
41220;DHT22;26951;47.338;9.196;2022-09-03T02:53:55;14.70;73.40
41220;DHT22;26951;47.338;9.196;2022-09-03T02:56:40;14.80;74.30
41220;DHT22;26951;47.338;9.196;2022-09-03T02:59:25;14.70;74.30
41220;DHT22;26951;47.338;9.196;2022-09-03T03:02:12;14.80;74.30
41220;DHT22;26951;47.338;9.196;2022-09-03T03:04:56;14.80;74.70
41220;DHT22;26951;47.338;9.196;2022-09-03T03:07:40;14.80;74.30
41220;DHT22;26951;47.338;9.196;2022-09-03T03:10:25;14.70;74.00
41220;DHT22;26951;47.338;9.196;2022-09-03T03:13:09;14.70;74.50
41220;DHT22;26951;47.338;9.196;2022-09-03T03:15:58;14.70;74.70
41220;DHT22;26951;47.338;9.196;2022-09-03T03:18:43;14.70;74.40
41220;DHT22;26951;47.338;9.196;2022-09-03T03:21:30;14.60;74.90
41220;DHT22;26951;47.338;9.196;2022-09-03T03:24:14;14.60;74.60
41220;DHT22;26951;47.338;9.196;2022-09-03T03:26:59;14.60;74.50
41220;DHT22;26951;47.338;9.196;2022-09-03T03:29:43;14.60;74.50
41220;DHT22;26951;47.338;9.196;2022-09-03T03:32:27;14.60;74.80
41220;DHT22;26951;47.338;9.196;2022-09-03T03:35:11;14.60;74.90
41220;DHT22;26951;47.338;9.196;2022-09-03T03:37:57;14.60;74.80
41220;DHT22;26951;47.338;9.196;2022-09-03T03:40:41;14.60;74.60
41220;DHT22;26951;47.338;9.196;2022-09-03T03:43:25;14.60;74.90
41220;DHT22;26951;47.338;9.196;2022-09-03T03:46:10;14.60;75.00
41220;DHT22;26951;47.338;9.196;2022-09-03T03:48:54;14.60;75.10
41220;DHT22;26951;47.338;9.196;2022-09-03T03:51:39;14.50;75.40
41220;DHT22;26951;47.338;9.196;2022-09-03T03:54:24;14.50;75.00
41220;DHT22;26951;47.338;9.196;2022-09-03T03:57:08;14.50;75.10
41220;DHT22;26951;47.338;9.196;2022-09-03T03:59:52;14.50;76.50
41220;DHT22;26951;47.338;9.196;2022-09-03T04:02:36;14.50;76.10
41220;DHT22;26951;47.338;9.196;2022-09-03T04:05:20;14.50;75.90
41220;DHT22;26951;47.338;9.196;2022-09-03T04:08:04;14.50;75.90
41220;DHT22;26951;47.338;9.196;2022-09-03T04:10:49;14.50;76.10
41220;DHT22;26951;47.338;9.196;2022-09-03T04:13:36;14.50;75.90
41220;DHT22;26951;47.338;9.196;2022-09-03T04:16:25;14.50;75.60
41220;DHT22;26951;47.338;9.196;2022-09-03T04:19:10;14.50;75.60
41220;DHT22;26951;47.338;9.196;2022-09-03T04:21:55;14.50;76.30
41220;DHT22;26951;47.338;9.196;2022-09-03T04:24:39;14.50;75.90
41220;DHT22;26951;47.338;9.196;2022-09-03T04:27:23;14.60;75.70
41220;DHT22;26951;47.338;9.196;2022-09-03T04:30:07;14.60;76.30
41220;DHT22;26951;47.338;9.196;2022-09-03T04:32:52;14.50;76.10
41220;DHT22;26951;47.338;9.196;2022-09-03T04:35:36;14.60;76.10
41220;DHT22;26951;47.338;9.196;2022-09-03T04:38:21;14.60;75.90
41220;DHT22;26951;47.338;9.196;2022-09-03T04:41:07;14.60;75.70
41220;DHT22;26951;47.338;9.196;2022-09-03T04:43:53;14.60;76.30
41220;DHT22;26951;47.338;9.196;2022-09-03T04:46:37;14.60;75.90
41220;DHT22;26951;47.338;9.196;2022-09-03T04:49:23;14.60;75.10
41220;DHT22;26951;47.338;9.196;2022-09-03T04:52:08;14.60;74.90
41220;DHT22;26951;47.338;9.196;2022-09-03T04:54:53;14.60;75.90
41220;DHT22;26951;47.338;9.196;2022-09-03T04:57:37;14.60;76.40
41220;DHT22;26951;47.338;9.196;2022-09-03T05:00:21;14.60;75.70
41220;DHT22;26951;47.338;9.196;2022-09-03T05:03:05;14.60;75.90
41220;DHT22;26951;47.338;9.196;2022-09-03T05:05:54;14.70;76.30
41220;DHT22;26951;47.338;9.196;2022-09-03T05:08:38;14.70;76.10
41220;DHT22;26951;47.338;9.196;2022-09-03T05:11:24;14.70;76.30
41220;DHT22;26951;47.338;9.196;2022-09-03T05:14:09;14.70;76.30
41220;DHT22;26951;47.338;9.196;2022-09-03T05:16:55;14.70;76.00
41220;DHT22;26951;47.338;9.196;2022-09-03T05:19:39;14.80;75.90
41220;DHT22;26951;47.338;9.196;2022-09-03T05:22:23;14.80;75.70
41220;DHT22;26951;47.338;9.196;2022-09-03T05:25:07;14.80;75.80
41220;DHT22;26951;47.338;9.196;2022-09-03T05:27:51;14.80;75.80
41220;DHT22;26951;47.338;9.196;2022-09-03T05:30:37;14.80;75.70
41220;DHT22;26951;47.338;9.196;2022-09-03T05:33:21;14.80;75.60
41220;DHT22;26951;47.338;9.196;2022-09-03T05:36:15;14.80;76.20
41220;DHT22;26951;47.338;9.196;2022-09-03T05:38:59;14.80;76.10
41220;DHT22;26951;47.338;9.196;2022-09-03T05:41:44;14.90;76.90
41220;DHT22;26951;47.338;9.196;2022-09-03T05:44:28;14.90;76.90
41220;DHT22;26951;47.338;9.196;2022-09-03T05:47:13;14.90;76.80
41220;DHT22;26951;47.338;9.196;2022-09-03T05:49:57;15.00;77.00
41220;DHT22;26951;47.338;9.196;2022-09-03T05:52:41;15.00;76.90
41220;DHT22;26951;47.338;9.196;2022-09-03T05:55:25;15.10;77.20
41220;DHT22;26951;47.338;9.196;2022-09-03T05:58:11;15.10;77.50
41220;DHT22;26951;47.338;9.196;2022-09-03T06:00:56;15.20;77.60
41220;DHT22;26951;47.338;9.196;2022-09-03T06:03:41;15.30;77.80
41220;DHT22;26951;47.338;9.196;2022-09-03T06:06:27;15.30;78.00
41220;DHT22;26951;47.338;9.196;2022-09-03T06:09:17;15.40;78.70
41220;DHT22;26951;47.338;9.196;2022-09-03T06:12:02;15.40;78.50
41220;DHT22;26951;47.338;9.196;2022-09-03T06:14:46;15.40;78.80
41220;DHT22;26951;47.338;9.196;2022-09-03T06:17:30;15.50;79.30
41220;DHT22;26951;47.338;9.196;2022-09-03T06:20:14;15.50;79.20
41220;DHT22;26951;47.338;9.196;2022-09-03T06:22:58;15.60;79.10
41220;DHT22;26951;47.338;9.196;2022-09-03T06:25:42;15.60;78.90
41220;DHT22;26951;47.338;9.196;2022-09-03T06:28:26;15.70;79.60
41220;DHT22;26951;47.338;9.196;2022-09-03T06:31:12;15.70;78.80
41220;DHT22;26951;47.338;9.196;2022-09-03T06:33:57;15.70;78.70
41220;DHT22;26951;47.338;9.196;2022-09-03T06:36:41;15.80;78.60
41220;DHT22;26951;47.338;9.196;2022-09-03T06:39:25;15.80;78.00
41220;DHT22;26951;47.338;9.196;2022-09-03T06:42:09;15.90;77.80
41220;DHT22;26951;47.338;9.196;2022-09-03T06:44:55;15.90;77.60
41220;DHT22;26951;47.338;9.196;2022-09-03T06:47:40;15.90;76.40
41220;DHT22;26951;47.338;9.196;2022-09-03T06:50:24;15.90;76.90
41220;DHT22;26951;47.338;9.196;2022-09-03T06:53:08;15.90;77.20
41220;DHT22;26951;47.338;9.196;2022-09-03T06:55:59;15.90;75.40
41220;DHT22;26951;47.338;9.196;2022-09-03T06:58:46;15.90;76.90
41220;DHT22;26951;47.338;9.196;2022-09-03T07:01:31;16.00;77.00
41220;DHT22;26951;47.338;9.196;2022-09-03T07:04:15;16.00;74.20
41220;DHT22;26951;47.338;9.196;2022-09-03T07:06:59;16.00;75.10
41220;DHT22;26951;47.338;9.196;2022-09-03T07:09:44;16.00;77.30
41220;DHT22;26951;47.338;9.196;2022-09-03T07:12:28;16.10;76.80
41220;DHT22;26951;47.338;9.196;2022-09-03T07:15:13;16.10;75.70
41220;DHT22;26951;47.338;9.196;2022-09-03T07:17:57;16.20;77.00
41220;DHT22;26951;47.338;9.196;2022-09-03T07:20:41;16.20;77.20
41220;DHT22;26951;47.338;9.196;2022-09-03T07:23:25;16.20;77.00
41220;DHT22;26951;47.338;9.196;2022-09-03T07:26:12;16.30;76.40
41220;DHT22;26951;47.338;9.196;2022-09-03T07:28:57;16.30;77.20
41220;DHT22;26951;47.338;9.196;2022-09-03T07:31:43;16.50;79.80
41220;DHT22;26951;47.338;9.196;2022-09-03T07:34:27;16.70;80.40
41220;DHT22;26951;47.338;9.196;2022-09-03T07:37:12;16.90;82.80
41220;DHT22;26951;47.338;9.196;2022-09-03T07:39:56;17.20;85.50
41220;DHT22;26951;47.338;9.196;2022-09-03T07:42:40;17.40;84.90
41220;DHT22;26951;47.338;9.196;2022-09-03T07:45:24;17.60;82.60
41220;DHT22;26951;47.338;9.196;2022-09-03T07:48:11;17.80;79.70
41220;DHT22;26951;47.338;9.196;2022-09-03T07:50:59;18.00;80.30
41220;DHT22;26951;47.338;9.196;2022-09-03T07:53:47;18.30;80.80
41220;DHT22;26951;47.338;9.196;2022-09-03T07:56:33;18.70;74.90
41220;DHT22;26951;47.338;9.196;2022-09-03T07:59:21;19.00;73.00
41220;DHT22;26951;47.338;9.196;2022-09-03T08:02:07;19.40;76.80
41220;DHT22;26951;47.338;9.196;2022-09-03T08:04:51;19.90;75.10
41220;DHT22;26951;47.338;9.196;2022-09-03T08:07:35;20.50;71.20
41220;DHT22;26951;47.338;9.196;2022-09-03T08:10:19;21.00;62.50
41220;DHT22;26951;47.338;9.196;2022-09-03T08:13:05;21.50;61.00
41220;DHT22;26951;47.338;9.196;2022-09-03T08:15:54;21.90;58.50
41220;DHT22;26951;47.338;9.196;2022-09-03T08:18:39;22.30;53.40
41220;DHT22;26951;47.338;9.196;2022-09-03T08:21:24;22.70;58.00
41220;DHT22;26951;47.338;9.196;2022-09-03T08:24:14;23.20;55.60
41220;DHT22;26951;47.338;9.196;2022-09-03T08:26:59;23.60;58.10
41220;DHT22;26951;47.338;9.196;2022-09-03T08:29:43;24.00;54.50
41220;DHT22;26951;47.338;9.196;2022-09-03T08:32:29;24.40;53.80
41220;DHT22;26951;47.338;9.196;2022-09-03T08:35:13;24.80;46.40
41220;DHT22;26951;47.338;9.196;2022-09-03T08:37:57;24.90;47.20
41220;DHT22;26951;47.338;9.196;2022-09-03T08:40:44;25.00;47.90
41220;DHT22;26951;47.338;9.196;2022-09-03T08:43:29;25.30;46.60
41220;DHT22;26951;47.338;9.196;2022-09-03T08:46:13;25.40;42.30
41220;DHT22;26951;47.338;9.196;2022-09-03T08:48:57;25.40;45.80
41220;DHT22;26951;47.338;9.196;2022-09-03T08:51:44;25.40;44.40
41220;DHT22;26951;47.338;9.196;2022-09-03T08:54:32;25.30;45.30
41220;DHT22;26951;47.338;9.196;2022-09-03T08:57:18;25.30;43.80
41220;DHT22;26951;47.338;9.196;2022-09-03T09:00:03;25.30;45.30
41220;DHT22;26951;47.338;9.196;2022-09-03T09:02:57;25.50;46.00
41220;DHT22;26951;47.338;9.196;2022-09-03T09:05:59;25.60;48.20
41220;DHT22;26951;47.338;9.196;2022-09-03T09:18:05;26.30;45.10
41220;DHT22;26951;47.338;9.196;2022-09-03T09:23:50;27.00;40.50
41220;DHT22;26951;47.338;9.196;2022-09-03T09:26:34;27.20;40.90
41220;DHT22;26951;47.338;9.196;2022-09-03T09:29:19;27.30;42.10
41220;DHT22;26951;47.338;9.196;2022-09-03T09:32:07;27.50;38.40
41220;DHT22;26951;47.338;9.196;2022-09-03T09:34:52;27.60;38.00
41220;DHT22;26951;47.338;9.196;2022-09-03T09:37:48;27.30;35.60
41220;DHT22;26951;47.338;9.196;2022-09-03T09:40:35;27.00;38.70
41220;DHT22;26951;47.338;9.196;2022-09-03T09:43:20;26.70;41.20
41220;DHT22;26951;47.338;9.196;2022-09-03T09:46:12;26.60;40.90
41220;DHT22;26951;47.338;9.196;2022-09-03T09:48:57;26.60;39.30
41220;DHT22;26951;47.338;9.196;2022-09-03T09:51:41;26.60;40.90
41220;DHT22;26951;47.338;9.196;2022-09-03T09:54:25;26.60;40.90
41220;DHT22;26951;47.338;9.196;2022-09-03T09:57:16;26.60;39.20
41220;DHT22;26951;47.338;9.196;2022-09-03T10:00:06;26.30;35.80
41220;DHT22;26951;47.338;9.196;2022-09-03T10:02:53;26.00;34.60
41220;DHT22;26951;47.338;9.196;2022-09-03T10:05:38;25.80;39.00
41220;DHT22;26951;47.338;9.196;2022-09-03T10:08:23;25.60;42.70
41220;DHT22;26951;47.338;9.196;2022-09-03T10:11:08;25.50;42.00
41220;DHT22;26951;47.338;9.196;2022-09-03T10:13:53;25.30;40.20
41220;DHT22;26951;47.338;9.196;2022-09-03T10:16:42;25.00;40.30
41220;DHT22;26951;47.338;9.196;2022-09-03T10:26:09;24.20;37.70
41220;DHT22;26951;47.338;9.196;2022-09-03T10:28:57;23.90;38.80
41220;DHT22;26951;47.338;9.196;2022-09-03T10:31:54;23.50;39.30
41220;DHT22;26951;47.338;9.196;2022-09-03T10:40:48;22.30;44.00
41220;DHT22;26951;47.338;9.196;2022-09-03T10:46:53;21.20;50.20
41220;DHT22;26951;47.338;9.196;2022-09-03T10:50:02;20.80;51.70
41220;DHT22;26951;47.338;9.196;2022-09-03T10:56:04;20.10;52.00
41220;DHT22;26951;47.338;9.196;2022-09-03T11:07:57;18.70;57.00
41220;DHT22;26951;47.338;9.196;2022-09-03T11:10:47;18.30;58.70
41220;DHT22;26951;47.338;9.196;2022-09-03T11:13:39;18.00;59.10
41220;DHT22;26951;47.338;9.196;2022-09-03T11:16:29;17.90;60.70
41220;DHT22;26951;47.338;9.196;2022-09-03T11:19:19;17.80;59.90
41220;DHT22;26951;47.338;9.196;2022-09-03T11:22:09;17.70;60.70
41220;DHT22;26951;47.338;9.196;2022-09-03T11:24:56;17.50;62.60
41220;DHT22;26951;47.338;9.196;2022-09-03T11:30:46;17.50;61.60
41220;DHT22;26951;47.338;9.196;2022-09-03T11:33:38;17.50;60.90
41220;DHT22;26951;47.338;9.196;2022-09-03T11:36:30;17.60;60.40
41220;DHT22;26951;47.338;9.196;2022-09-03T11:39:34;17.60;60.10
41220;DHT22;26951;47.338;9.196;2022-09-03T11:42:29;17.60;60.50
41220;DHT22;26951;47.338;9.196;2022-09-03T11:45:32;17.60;60.90
41220;DHT22;26951;47.338;9.196;2022-09-03T11:51:32;17.30;64.70
41220;DHT22;26951;47.338;9.196;2022-09-03T11:57:13;17.30;68.80
41220;DHT22;26951;47.338;9.196;2022-09-03T12:00:08;17.60;69.10
41220;DHT22;26951;47.338;9.196;2022-09-03T12:03:01;18.00;68.40
41220;DHT22;26951;47.338;9.196;2022-09-03T12:15:08;18.40;62.40
41220;DHT22;26951;47.338;9.196;2022-09-03T12:18:23;18.50;63.40
41220;DHT22;26951;47.338;9.196;2022-09-03T12:21:10;18.50;62.20
41220;DHT22;26951;47.338;9.196;2022-09-03T12:23:54;18.60;63.20
41220;DHT22;26951;47.338;9.196;2022-09-03T12:26:40;18.60;63.00
41220;DHT22;26951;47.338;9.196;2022-09-03T12:29:27;18.70;63.00
41220;DHT22;26951;47.338;9.196;2022-09-03T12:32:12;18.80;64.30
41220;DHT22;26951;47.338;9.196;2022-09-03T12:34:57;19.00;65.40
41220;DHT22;26951;47.338;9.196;2022-09-03T12:37:43;19.10;63.80
41220;DHT22;26951;47.338;9.196;2022-09-03T12:40:30;19.20;62.60
41220;DHT22;26951;47.338;9.196;2022-09-03T12:43:16;19.30;62.40
41220;DHT22;26951;47.338;9.196;2022-09-03T12:46:01;19.50;61.90
41220;DHT22;26951;47.338;9.196;2022-09-03T12:48:56;19.50;59.60
41220;DHT22;26951;47.338;9.196;2022-09-03T12:51:42;19.60;61.70
41220;DHT22;26951;47.338;9.196;2022-09-03T12:54:28;19.70;57.50
41220;DHT22;26951;47.338;9.196;2022-09-03T12:57:16;19.70;58.30
41220;DHT22;26951;47.338;9.196;2022-09-03T13:00:07;19.70;59.40
41220;DHT22;26951;47.338;9.196;2022-09-03T13:06:07;19.80;60.70
41220;DHT22;26951;47.338;9.196;2022-09-03T13:08:58;20.00;62.20
41220;DHT22;26951;47.338;9.196;2022-09-03T13:11:43;20.20;59.70
41220;DHT22;26951;47.338;9.196;2022-09-03T13:14:28;20.30;56.90
41220;DHT22;26951;47.338;9.196;2022-09-03T13:17:41;20.40;56.70
41220;DHT22;26951;47.338;9.196;2022-09-03T13:20:46;20.40;55.90
41220;DHT22;26951;47.338;9.196;2022-09-03T13:30:03;20.30;56.40
41220;DHT22;26951;47.338;9.196;2022-09-03T13:36:08;20.40;61.50
41220;DHT22;26951;47.338;9.196;2022-09-03T13:38:55;20.60;54.60
41220;DHT22;26951;47.338;9.196;2022-09-03T13:41:47;20.50;52.50
41220;DHT22;26951;47.338;9.196;2022-09-03T13:44:47;20.40;54.20
41220;DHT22;26951;47.338;9.196;2022-09-03T13:47:43;20.40;54.30
41220;DHT22;26951;47.338;9.196;2022-09-03T13:50:56;20.30;56.40
41220;DHT22;26951;47.338;9.196;2022-09-03T13:54:05;20.20;54.60
41220;DHT22;26951;47.338;9.196;2022-09-03T13:59:59;20.20;53.80
41220;DHT22;26951;47.338;9.196;2022-09-03T14:02:57;20.10;53.30
41220;DHT22;26951;47.338;9.196;2022-09-03T14:09:13;20.00;54.40
41220;DHT22;26951;47.338;9.196;2022-09-03T14:12:03;19.90;55.40
41220;DHT22;26951;47.338;9.196;2022-09-03T14:21:03;20.00;55.30
41220;DHT22;26951;47.338;9.196;2022-09-03T14:26:55;19.90;55.10
41220;DHT22;26951;47.338;9.196;2022-09-03T14:29:50;20.00;58.30
41220;DHT22;26951;47.338;9.196;2022-09-03T14:32:56;20.20;57.30
41220;DHT22;26951;47.338;9.196;2022-09-03T14:36:01;20.40;54.30
41220;DHT22;26951;47.338;9.196;2022-09-03T14:39:11;20.60;53.00
41220;DHT22;26951;47.338;9.196;2022-09-03T14:42:40;20.80;53.30
41220;DHT22;26951;47.338;9.196;2022-09-03T14:45:55;21.10;50.90
41220;DHT22;26951;47.338;9.196;2022-09-03T15:09:32;21.80;48.90
41220;DHT22;26951;47.338;9.196;2022-09-03T15:12:33;21.90;48.90
41220;DHT22;26951;47.338;9.196;2022-09-03T15:15:29;21.90;46.60
41220;DHT22;26951;47.338;9.196;2022-09-03T15:24:08;22.00;45.90
41220;DHT22;26951;47.338;9.196;2022-09-03T15:27:16;22.00;46.20
41220;DHT22;26951;47.338;9.196;2022-09-03T15:30:17;21.90;46.10
41220;DHT22;26951;47.338;9.196;2022-09-03T15:33:29;21.80;47.30
41220;DHT22;26951;47.338;9.196;2022-09-03T15:36:22;21.70;45.60
41220;DHT22;26951;47.338;9.196;2022-09-03T15:39:15;21.70;46.70
41220;DHT22;26951;47.338;9.196;2022-09-03T15:42:05;21.60;46.10
41220;DHT22;26951;47.338;9.196;2022-09-03T15:44:55;21.70;46.80
41220;DHT22;26951;47.338;9.196;2022-09-03T15:47:55;21.70;47.50
41220;DHT22;26951;47.338;9.196;2022-09-03T16:00:12;21.80;45.20
41220;DHT22;26951;47.338;9.196;2022-09-03T16:03:15;21.80;45.40
41220;DHT22;26951;47.338;9.196;2022-09-03T16:07:02;21.70;46.10
41220;DHT22;26951;47.338;9.196;2022-09-03T16:12:34;21.70;47.50
41220;DHT22;26951;47.338;9.196;2022-09-03T16:15:23;21.70;47.10
41220;DHT22;26951;47.338;9.196;2022-09-03T16:21:28;21.70;48.50
41220;DHT22;26951;47.338;9.196;2022-09-03T16:24:21;21.60;47.40
41220;DHT22;26951;47.338;9.196;2022-09-03T16:27:29;21.60;46.60
41220;DHT22;26951;47.338;9.196;2022-09-03T16:30:49;21.50;47.60
41220;DHT22;26951;47.338;9.196;2022-09-03T16:34:38;21.60;47.20
41220;DHT22;26951;47.338;9.196;2022-09-03T16:40:18;21.30;47.60
41220;DHT22;26951;47.338;9.196;2022-09-03T16:43:32;21.00;47.70
41220;DHT22;26951;47.338;9.196;2022-09-03T16:49:38;20.70;50.80
41220;DHT22;26951;47.338;9.196;2022-09-03T16:52:31;20.70;51.70
41220;DHT22;26951;47.338;9.196;2022-09-03T16:55:22;20.50;51.90
41220;DHT22;26951;47.338;9.196;2022-09-03T16:58:16;20.40;52.40
41220;DHT22;26951;47.338;9.196;2022-09-03T17:13:40;19.50;53.90
41220;DHT22;26951;47.338;9.196;2022-09-03T17:16:54;19.20;54.10
41220;DHT22;26951;47.338;9.196;2022-09-03T17:20:08;19.00;54.70
41220;DHT22;26951;47.338;9.196;2022-09-03T17:26:20;18.70;55.40
41220;DHT22;26951;47.338;9.196;2022-09-03T17:29:21;18.50;55.60
41220;DHT22;26951;47.338;9.196;2022-09-03T17:35:19;18.20;56.20
41220;DHT22;26951;47.338;9.196;2022-09-03T17:44:38;17.80;57.70
41220;DHT22;26951;47.338;9.196;2022-09-03T17:50:24;17.60;57.60
41220;DHT22;26951;47.338;9.196;2022-09-03T17:53:37;17.50;57.60
41220;DHT22;26951;47.338;9.196;2022-09-03T17:56:27;17.40;57.90
41220;DHT22;26951;47.338;9.196;2022-09-03T17:59:52;17.30;58.70
41220;DHT22;26951;47.338;9.196;2022-09-03T18:05:47;17.10;58.60
41220;DHT22;26951;47.338;9.196;2022-09-03T18:08:54;17.10;59.20
41220;DHT22;26951;47.338;9.196;2022-09-03T18:11:40;17.10;59.50
41220;DHT22;26951;47.338;9.196;2022-09-03T18:14:34;17.00;60.10
41220;DHT22;26951;47.338;9.196;2022-09-03T18:20:30;16.90;60.90
41220;DHT22;26951;47.338;9.196;2022-09-03T18:26:57;16.80;62.60
41220;DHT22;26951;47.338;9.196;2022-09-03T18:30:05;16.80;62.50
41220;DHT22;26951;47.338;9.196;2022-09-03T18:33:09;16.80;63.80
41220;DHT22;26951;47.338;9.196;2022-09-03T18:36:13;16.70;65.60
41220;DHT22;26951;47.338;9.196;2022-09-03T18:39:24;16.70;66.10
41220;DHT22;26951;47.338;9.196;2022-09-03T18:43:08;16.60;65.60
41220;DHT22;26951;47.338;9.196;2022-09-03T18:46:25;16.40;65.70
41220;DHT22;26951;47.338;9.196;2022-09-03T18:49:53;16.30;65.90
41220;DHT22;26951;47.338;9.196;2022-09-03T18:53:26;16.20;65.30
41220;DHT22;26951;47.338;9.196;2022-09-03T18:56:42;16.20;64.60
41220;DHT22;26951;47.338;9.196;2022-09-03T19:00:03;16.10;64.70
41220;DHT22;26951;47.338;9.196;2022-09-03T19:06:41;15.80;65.60
41220;DHT22;26951;47.338;9.196;2022-09-03T19:10:09;15.70;67.20
41220;DHT22;26951;47.338;9.196;2022-09-03T19:13:32;15.70;67.50
41220;DHT22;26951;47.338;9.196;2022-09-03T19:16:49;15.70;67.50
41220;DHT22;26951;47.338;9.196;2022-09-03T19:20:29;15.70;67.10
41220;DHT22;26951;47.338;9.196;2022-09-03T19:23:33;15.60;66.60
41220;DHT22;26951;47.338;9.196;2022-09-03T19:26:42;15.50;66.10
41220;DHT22;26951;47.338;9.196;2022-09-03T19:30:06;15.40;66.80
41220;DHT22;26951;47.338;9.196;2022-09-03T19:33:21;15.40;67.10
41220;DHT22;26951;47.338;9.196;2022-09-03T19:36:43;15.30;66.70
41220;DHT22;26951;47.338;9.196;2022-09-03T19:46:59;15.00;66.80
41220;DHT22;26951;47.338;9.196;2022-09-03T19:50:23;15.00;67.10
41220;DHT22;26951;47.338;9.196;2022-09-03T19:53:28;15.00;67.10
41220;DHT22;26951;47.338;9.196;2022-09-03T19:56:35;14.90;65.40
41220;DHT22;26951;47.338;9.196;2022-09-03T19:59:39;14.90;65.70
41220;DHT22;26951;47.338;9.196;2022-09-03T20:02:45;14.80;65.50
41220;DHT22;26951;47.338;9.196;2022-09-03T20:05:50;14.70;65.30
41220;DHT22;26951;47.338;9.196;2022-09-03T20:08:59;14.60;65.60
41220;DHT22;26951;47.338;9.196;2022-09-03T20:12:06;14.60;67.10
41220;DHT22;26951;47.338;9.196;2022-09-03T20:14:51;14.50;67.10
41220;DHT22;26951;47.338;9.196;2022-09-03T20:20:44;14.40;66.10
41220;DHT22;26951;47.338;9.196;2022-09-03T20:23:48;14.30;67.20
41220;DHT22;26951;47.338;9.196;2022-09-03T20:30:14;14.10;68.30
41220;DHT22;26951;47.338;9.196;2022-09-03T20:39:10;14.10;66.50
41220;DHT22;26951;47.338;9.196;2022-09-03T20:42:12;14.10;66.30
41220;DHT22;26951;47.338;9.196;2022-09-03T20:45:05;14.00;66.30
41220;DHT22;26951;47.338;9.196;2022-09-03T20:48:07;14.00;67.00
41220;DHT22;26951;47.338;9.196;2022-09-03T20:51:00;13.80;67.50
41220;DHT22;26951;47.338;9.196;2022-09-03T20:54:03;13.80;68.30
41220;DHT22;26951;47.338;9.196;2022-09-03T21:00:13;13.70;67.80
41220;DHT22;26951;47.338;9.196;2022-09-03T21:05:52;13.60;68.40
41220;DHT22;26951;47.338;9.196;2022-09-03T21:12:00;13.50;68.60
41220;DHT22;26951;47.338;9.196;2022-09-03T21:14:57;13.50;68.40
41220;DHT22;26951;47.338;9.196;2022-09-03T21:20:48;13.40;69.60
41220;DHT22;26951;47.338;9.196;2022-09-03T21:23:39;13.40;69.20
41220;DHT22;26951;47.338;9.196;2022-09-03T21:26:27;13.40;69.50
41220;DHT22;26951;47.338;9.196;2022-09-03T21:32:15;13.40;69.90
41220;DHT22;26951;47.338;9.196;2022-09-03T21:35:27;13.40;68.50
41220;DHT22;26951;47.338;9.196;2022-09-03T21:38:16;13.30;68.40
41220;DHT22;26951;47.338;9.196;2022-09-03T21:41:16;13.30;67.80
41220;DHT22;26951;47.338;9.196;2022-09-03T21:44:15;13.30;67.90
41220;DHT22;26951;47.338;9.196;2022-09-03T21:47:12;13.20;68.70
41220;DHT22;26951;47.338;9.196;2022-09-03T21:50:04;13.20;68.60
41220;DHT22;26951;47.338;9.196;2022-09-03T21:53:06;13.10;68.70
41220;DHT22;26951;47.338;9.196;2022-09-03T22:05:04;13.00;70.60
41220;DHT22;26951;47.338;9.196;2022-09-03T22:08:16;13.00;70.10
41220;DHT22;26951;47.338;9.196;2022-09-03T22:14:08;13.00;71.20
41220;DHT22;26951;47.338;9.196;2022-09-03T22:17:19;13.00;69.80
41220;DHT22;26951;47.338;9.196;2022-09-03T22:20:06;13.00;69.60
41220;DHT22;26951;47.338;9.196;2022-09-03T22:23:02;12.90;69.90
41220;DHT22;26951;47.338;9.196;2022-09-03T22:26:13;12.90;70.70
41220;DHT22;26951;47.338;9.196;2022-09-03T22:29:09;12.80;71.30
41220;DHT22;26951;47.338;9.196;2022-09-03T22:35:39;12.80;72.40
41220;DHT22;26951;47.338;9.196;2022-09-03T22:44:40;12.80;73.30
41220;DHT22;26951;47.338;9.196;2022-09-03T22:47:51;12.70;74.90
41220;DHT22;26951;47.338;9.196;2022-09-03T22:50:57;12.70;75.10
41220;DHT22;26951;47.338;9.196;2022-09-03T22:56:44;12.70;75.40